메인 페이지
METAR-TAF:

METAR-TAF

공항 :

라바트, 모로코

위도: 34-03N, 경도: 006-46W, 고도: 84m

현재 날씨관측

예보는 18분 전, 05:30시(UTC)에 발표되었습니다.
남동3kt풍과 남남동풍을 오가는
온도 9°C
습도 93%
기압 1015 hPa
시정: 5000m
고도 1000ft 상공 구름 조금
고도 2000ft 상공 구름 보통

METAR: GMME 200530Z 13003KT 090V150 5000 FEW010 SCT020 09/08 Q1015 TEMPO 3000 BR

시각: 05:48 (05:48 UTC)

예보

예보는 48분 전, 05:00시(UTC)에 발표되었습니다.
예보 대상 시간: 20일 06시부터 21일 12시까지 (UTC)
여러 방향의 바람 2kt
시정: 5000m
고도 1000ft 상공 구름 보통
고도 2000ft 상공 구름 보통
일시적
20일 14시부터 20일 24시까지 (UTC)
4kt
시정: 8000m

TAF: GMME 200500Z 2006/2112 VRB02KT 5000 SCT010 SCT020 TEMPO 2014/2024 36004KT 8000 NSC

4,000개 이상의 공항 관측 자료 및 예보 (METAR 및 TAF 보고).

지도상에서 검색 가능한 기상관측소가 노란 점과 빨간 점으로 표시되어 있습니다.

기상관측소 명을 보려면 표시 위로 마우스를 이동하세요.

날씨 관측과 예보를 보려면 클릭하세요.

지도 변경 : 확대하려면 엑스 표시가 있는 녹색 버튼, 축소하려면 빼기 표시가 있는 녹색 버튼, 다음 페이지의 지도를 보려면 녹색 화살표를 클릭하세요.


METAR-TAF: